Time;durP1;ratioP1;P1;durP2;ratioP2;P2;SDS_P1;SDS_P2;PMS_P1;PMS_P2;Temp;Humidity;BMP_temperature;BMP_pressure;BME280_temperature;BME280_humidity;BME280_pressure;Samples;Min_cycle;Max_cycle;Signal;HPM_P1;HPM_P2
2022/06/11 03:02:21;;;;;;;2.08;0.90;;;24.90;42.50;;;;;;5092730;23;45786;-64
2022/06/11 03:04:47;;;;;;;0.60;0.60;;;24.90;42.50;;;;;;4946222;28;46253;-65
2022/06/11 03:07:12;;;;;;;1.25;0.68;;;25.00;42.60;;;;;;4979822;28;45554;-61
2022/06/11 03:09:39;;;;;;;0.85;0.75;;;24.90;42.50;;;;;;4980925;28;45358;-61
2022/06/11 03:12:06;;;;;;;2.80;1.00;;;24.90;42.60;;;;;;4981547;28;45413;-61
2022/06/11 03:14:32;;;;;;;0.98;0.80;;;24.90;42.50;;;;;;4982734;28;45777;-59
2022/06/11 03:16:57;;;;;;;1.52;0.60;;;24.90;42.60;;;;;;4979418;28;46125;-59
2022/06/11 03:19:23;;;;;;;1.33;0.70;;;24.90;42.60;;;;;;4982862;28;45192;-62
2022/06/11 03:21:51;;;;;;;0.65;0.63;;;24.90;42.60;;;;;;4977513;28;45599;-64
2022/06/11 03:24:17;;;;;;;1.10;0.70;;;24.90;42.60;;;;;;4979048;28;45760;-63
2022/06/11 03:26:42;;;;;;;1.40;0.60;;;24.90;42.60;;;;;;4981751;28;47025;-62
2022/06/11 03:29:08;;;;;;;3.55;1.00;;;24.80;42.60;;;;;;4982826;28;45643;-62
2022/06/11 03:31:34;;;;;;;1.58;0.73;;;24.80;42.60;;;;;;4961843;28;45466;-62
2022/06/11 03:34:00;;;;;;;1.30;0.60;;;24.80;42.60;;;;;;4971571;28;45839;-62
2022/06/11 03:36:26;;;;;;;2.70;0.77;;;24.80;42.60;;;;;;4970017;28;45979;-59
2022/06/11 03:38:51;;;;;;;0.90;0.70;;;24.80;42.60;;;;;;4969631;28;46373;-66
2022/06/11 03:41:18;;;;;;;2.17;0.93;;;24.80;42.60;;;;;;4948376;28;45517;-62
2022/06/11 03:43:44;;;;;;;1.35;1.05;;;24.80;42.70;;;;;;4968151;28;45302;-58
2022/06/11 03:46:10;;;;;;;2.22;0.98;;;24.80;42.60;;;;;;4966475;28;45323;-65
2022/06/11 03:48:36;;;;;;;1.30;0.90;;;24.80;42.60;;;;;;4966610;28;45265;-62
2022/06/11 03:51:02;;;;;;;1.70;0.80;;;24.80;42.60;;;;;;4966317;28;45542;-61
2022/06/11 03:53:40;;;;;;;1.35;0.90;;;24.80;42.60;;;;;;4948355;28;45355;-69
2022/06/11 03:56:07;;;;;;;1.20;0.80;;;24.80;42.70;;;;;;4966522;28;46464;-61
2022/06/11 03:58:33;;;;;;;1.58;0.90;;;24.80;42.70;;;;;;4967835;28;45945;-64
2022/06/11 04:01:18;;;;;;;1.60;0.82;;;24.80;42.60;;;;;;4966291;28;45498;-61
2022/06/11 04:03:52;;;;;;;1.90;1.02;;;24.80;42.60;;;;;;4969231;28;45683;-61
2022/06/11 04:06:20;;;;;;;4.07;1.00;;;24.80;42.70;;;;;;4970770;28;46973;-61
2022/06/11 04:08:46;;;;;;;2.45;0.93;;;24.80;42.70;;;;;;4968905;28;46335;-59
2022/06/11 04:11:12;;;;;;;1.27;0.95;;;24.80;42.70;;;;;;4982603;28;45757;-63
2022/06/11 04:13:39;;;;;;;0.90;0.77;;;24.80;42.70;;;;;;4981609;28;45569;-63
2022/06/11 04:16:05;;;;;;;2.65;1.00;;;24.80;42.70;;;;;;4948373;28;46195;-61
2022/06/11 04:18:37;;;;;;;0.90;0.80;;;24.70;42.70;;;;;;4947660;28;45343;-62
2022/06/11 04:21:05;;;;;;;0.95;0.70;;;24.70;42.70;;;;;;4963601;28;45217;-62
2022/06/11 04:23:31;;;;;;;1.13;0.85;;;24.70;42.70;;;;;;4979490;28;46187;-60
2022/06/11 04:25:58;;;;;;;0.80;0.80;;;24.70;42.80;;;;;;4979454;28;47164;-61
2022/06/11 04:28:25;;;;;;;1.65;0.88;;;24.80;42.90;;;;;;4979962;28;45721;-63
2022/06/11 04:30:51;;;;;;;1.10;0.77;;;24.70;42.80;;;;;;4981624;28;45636;-59
2022/06/11 04:33:17;;;;;;;1.42;0.80;;;24.70;42.80;;;;;;4982121;28;45663;-59
2022/06/11 04:35:42;;;;;;;1.02;0.80;;;24.70;42.90;;;;;;4981892;28;46152;-59
2022/06/11 04:38:08;;;;;;;0.77;0.70;;;24.70;42.90;;;;;;4981383;28;45265;-62
2022/06/11 04:40:33;;;;;;;2.03;0.80;;;24.70;42.90;;;;;;4981016;28;45574;-64
2022/06/11 04:42:59;;;;;;;2.58;0.90;;;24.70;42.90;;;;;;4983533;28;46178;-61
2022/06/11 04:45:24;;;;;;;1.40;0.73;;;24.70;42.90;;;;;;4980664;28;46331;-62
2022/06/11 04:47:50;;;;;;;2.80;1.20;;;24.70;43.00;;;;;;4982335;28;45357;-63
2022/06/11 04:50:16;;;;;;;1.27;1.10;;;24.70;43.10;;;;;;4982703;28;45295;-61
2022/06/11 04:52:42;;;;;;;1.95;0.98;;;24.70;43.10;;;;;;4980673;28;45324;-56
2022/06/11 04:55:07;;;;;;;1.23;0.80;;;24.70;43.10;;;;;;4982653;28;45629;-62
2022/06/11 04:57:33;;;;;;;2.00;1.00;;;24.70;43.10;;;;;;4982872;28;45314;-63
2022/06/11 04:59:59;;;;;;;2.28;0.90;;;24.70;43.10;;;;;;4982187;28;46027;-59
2022/06/11 05:02:24;;;;;;;2.22;0.88;;;24.70;43.10;;;;;;4979976;28;45649;-57
2022/06/11 05:04:50;;;;;;;1.20;0.88;;;24.70;43.20;;;;;;4980602;28;45924;-65
2022/06/11 05:07:15;;;;;;;1.88;1.05;;;24.70;43.20;;;;;;4981505;28;45824;-60
2022/06/11 05:09:41;;;;;;;3.33;1.17;;;24.70;43.30;;;;;;4980774;28;45329;-62
2022/06/11 05:12:07;;;;;;;1.50;0.88;;;24.70;43.30;;;;;;4978820;28;45616;-62
2022/06/11 05:14:33;;;;;;;1.13;1.02;;;24.80;43.30;;;;;;4981043;28;45728;-60
2022/06/11 05:16:59;;;;;;;1.75;0.88;;;24.70;43.30;;;;;;4979943;28;45799;-61
2022/06/11 05:19:25;;;;;;;1.45;1.00;;;24.80;43.40;;;;;;4981662;28;46008;-60
2022/06/11 05:21:50;;;;;;;1.90;1.10;;;24.70;43.30;;;;;;4983145;28;45743;-60
2022/06/11 05:24:19;;;;;;;0.80;0.75;;;24.80;43.40;;;;;;4982178;28;46915;-61
2022/06/11 05:26:51;;;;;;;1.73;0.90;;;24.80;43.40;;;;;;4980595;28;45963;-65
2022/06/11 05:29:28;;;;;;;1.38;0.90;;;24.70;43.50;;;;;;4963443;28;46271;-58
2022/06/11 05:31:53;;;;;;;1.55;0.80;;;24.70;43.50;;;;;;4963000;28;45540;-63
2022/06/11 05:34:19;;;;;;;1.60;0.90;;;24.70;43.50;;;;;;4983285;28;45755;-59
2022/06/11 05:36:45;;;;;;;1.83;0.93;;;24.80;43.60;;;;;;4978327;28;45677;-62
2022/06/11 05:39:10;;;;;;;1.67;0.98;;;24.80;43.70;;;;;;4982793;28;45804;-56
2022/06/11 05:41:36;;;;;;;1.35;1.02;;;24.80;43.70;;;;;;4984817;28;46280;-60
2022/06/11 05:44:02;;;;;;;1.45;0.90;;;24.80;43.70;;;;;;4986611;28;46607;-59
2022/06/11 05:46:28;;;;;;;1.42;1.00;;;24.80;43.70;;;;;;4984704;28;45410;-58
2022/06/11 05:48:58;;;;;;;1.00;0.90;;;24.80;43.80;;;;;;4952402;28;45805;-62
2022/06/11 05:51:27;;;;;;;1.50;1.20;;;24.80;43.80;;;;;;4984174;28;45037;-61
2022/06/11 05:53:54;;;;;;;2.40;0.85;;;24.80;43.70;;;;;;4952131;28;46143;-61
2022/06/11 05:56:19;;;;;;;1.50;0.90;;;24.80;43.80;;;;;;4965788;28;45504;-60
2022/06/11 05:58:54;;;;;;;3.63;0.98;;;24.80;43.70;;;;;;4948826;28;48141;-61
2022/06/11 06:01:23;;;;;;;2.13;1.00;;;24.90;43.60;;;;;;4949657;28;45748;-65
2022/06/11 06:03:48;;;;;;;1.50;0.88;;;24.90;43.60;;;;;;4964077;28;46238;-62
2022/06/11 06:06:14;;;;;;;0.90;0.88;;;24.90;43.60;;;;;;4982425;28;45245;-60
2022/06/11 06:08:40;;;;;;;1.92;1.20;;;25.00;44.20;;;;;;4984384;28;44728;-65
2022/06/11 06:11:06;;;;;;;1.38;1.08;;;25.00;43.40;;;;;;4985048;28;45570;-58
2022/06/11 06:13:47;;;;;;;1.80;1.10;;;25.10;43.40;;;;;;4985633;28;46492;-60
2022/06/11 06:16:14;;;;;;;2.28;1.00;;;25.10;43.20;;;;;;4986305;28;46525;-62
2022/06/11 06:18:39;;;;;;;0.90;0.80;;;25.20;43.20;;;;;;4982063;28;45485;-64
2022/06/11 06:21:05;;;;;;;2.65;1.00;;;25.20;43.20;;;;;;4984411;28;45105;-61
2022/06/11 06:23:32;;;;;;;2.17;0.85;;;25.20;43.30;;;;;;4986069;28;46123;-62
2022/06/11 06:25:57;;;;;;;1.23;0.73;;;25.20;43.40;;;;;;4985740;28;45742;-59
2022/06/11 06:28:23;;;;;;;2.20;0.90;;;25.20;43.30;;;;;;4984854;28;44768;-61
2022/06/11 06:30:49;;;;;;;1.17;0.82;;;25.10;43.40;;;;;;4981206;28;45830;-60
2022/06/11 06:33:15;;;;;;;3.40;1.17;;;25.10;43.50;;;;;;4985080;28;46104;-59
2022/06/11 06:35:40;;;;;;;3.10;1.70;;;25.10;43.50;;;;;;4985506;28;45564;-59
2022/06/11 06:38:06;;;;;;;2.55;1.40;;;25.10;44.10;;;;;;4984606;28;45719;-63
2022/06/11 06:40:32;;;;;;;3.17;1.50;;;25.20;43.50;;;;;;4983585;28;45458;-62
2022/06/11 06:42:58;;;;;;;4.07;1.85;;;25.20;43.60;;;;;;4985340;28;45984;-61
2022/06/11 06:45:23;;;;;;;4.40;1.92;;;25.10;43.70;;;;;;4983928;28;44784;-63
2022/06/11 06:47:49;;;;;;;2.58;1.80;;;25.10;43.70;;;;;;4984552;28;44965;-61
2022/06/11 06:50:15;;;;;;;4.13;2.00;;;25.20;43.80;;;;;;4982873;28;45733;-64
2022/06/11 06:52:40;;;;;;;2.60;1.70;;;25.20;43.80;;;;;;4983455;28;46142;-60
2022/06/11 06:55:06;;;;;;;2.53;1.80;;;25.20;43.80;;;;;;4984624;28;45435;-61
2022/06/11 06:57:32;;;;;;;2.45;1.58;;;25.20;44.00;;;;;;4983287;28;44761;-61
2022/06/11 06:59:58;;;;;;;3.25;2.05;;;25.10;43.90;;;;;;4973877;28;45985;-63
2022/06/11 07:02:25;;;;;;;5.18;1.95;;;25.10;44.00;;;;;;4981545;28;45889;-63
2022/06/11 07:04:50;;;;;;;3.97;1.70;;;25.10;44.10;;;;;;4983790;28;46275;-65
2022/06/11 07:07:17;;;;;;;2.15;1.42;;;25.10;44.10;;;;;;4981625;28;45353;-61
2022/06/11 07:09:43;;;;;;;3.53;1.80;;;25.10;44.10;;;;;;4981480;28;45133;-62
2022/06/11 07:12:08;;;;;;;5.25;1.83;;;25.10;44.00;;;;;;4981033;28;46504;-64
2022/06/11 07:14:34;;;;;;;2.28;1.40;;;25.20;44.00;;;;;;4977681;28;45826;-64
2022/06/11 07:17:02;;;;;;;2.85;1.83;;;25.20;44.00;;;;;;4978927;28;46512;-59
2022/06/11 07:19:32;;;;;;;2.83;1.27;;;25.20;44.20;;;;;;4949190;28;45537;-65
2022/06/11 07:22:00;;;;;;;2.53;1.52;;;25.20;44.30;;;;;;4954487;28;46130;-60
2022/06/11 07:24:27;;;;;;;2.97;1.50;;;25.10;44.30;;;;;;4968516;28;46265;-60
2022/06/11 07:26:55;;;;;;;2.67;1.85;;;25.10;44.40;;;;;;4975496;28;45394;-63
2022/06/11 07:29:28;;;;;;;3.60;1.80;;;25.10;44.50;;;;;;4972888;28;45431;-62
2022/06/11 07:32:03;;;;;;;2.50;1.60;;;25.10;45.20;;;;;;4953252;28;46575;-60
2022/06/11 07:34:29;;;;;;;3.53;1.80;;;25.10;44.70;;;;;;4984194;28;44973;-66
2022/06/11 07:36:56;;;;;;;2.20;1.50;;;25.10;44.50;;;;;;4977127;28;45237;-65
2022/06/11 07:39:22;;;;;;;4.55;1.40;;;25.20;44.60;;;;;;4985989;28;45153;-62
2022/06/11 07:41:47;;;;;;;2.42;1.35;;;25.20;44.50;;;;;;4986306;28;45978;-62
2022/06/11 07:44:13;;;;;;;2.47;1.60;;;25.20;44.60;;;;;;4986029;28;45258;-60
2022/06/11 07:46:38;;;;;;;1.90;1.60;;;25.20;44.60;;;;;;4987430;28;45231;-60
2022/06/11 07:49:04;;;;;;;1.83;1.40;;;25.20;44.40;;;;;;4988877;28;45727;-60
2022/06/11 07:51:29;;;;;;;3.38;1.40;;;25.20;45.00;;;;;;4985454;28;46506;-60
2022/06/11 07:53:56;;;;;;;3.28;1.52;;;25.20;44.40;;;;;;4970088;28;45714;-60
2022/06/11 07:56:21;;;;;;;5.53;1.50;;;25.30;44.40;;;;;;4986872;28;46349;-63
2022/06/11 07:58:49;;;;;;;3.58;1.35;;;25.30;44.40;;;;;;4990377;28;45477;-57
2022/06/11 08:01:15;;;;;;;3.60;1.70;;;25.30;44.30;;;;;;4983003;28;46159;-62
2022/06/11 08:03:41;;;;;;;3.33;1.77;;;25.30;44.30;;;;;;4989223;28;44781;-62
2022/06/11 08:06:07;;;;;;;3.08;1.50;;;25.30;44.30;;;;;;4989652;28;44961;-56
2022/06/11 08:08:32;;;;;;;1.40;1.20;;;25.40;44.30;;;;;;4990077;28;45831;-61
2022/06/11 08:10:59;;;;;;;2.78;1.58;;;25.40;44.30;;;;;;4986805;28;46040;-57
2022/06/11 08:13:25;;;;;;;3.55;1.48;;;25.40;44.20;;;;;;4988720;28;45364;-58
2022/06/11 08:15:52;;;;;;;4.97;1.50;;;25.40;44.20;;;;;;4990277;28;45380;-56
2022/06/11 08:18:18;;;;;;;3.28;1.58;;;25.40;44.20;;;;;;4990333;28;45186;-60
2022/06/11 08:20:43;;;;;;;2.35;1.42;;;25.40;44.20;;;;;;4987552;28;46017;-61
2022/06/11 08:23:09;;;;;;;4.07;1.60;;;25.50;44.10;;;;;;4988620;28;45454;-61
2022/06/11 08:25:35;;;;;;;2.15;1.40;;;25.50;44.10;;;;;;4987026;28;45267;-60
2022/06/11 08:28:01;;;;;;;1.55;1.27;;;25.50;44.00;;;;;;4988316;28;45791;-60
2022/06/11 08:30:27;;;;;;;2.10;1.30;;;25.50;43.90;;;;;;4987197;28;46676;-60
2022/06/11 08:32:53;;;;;;;2.80;1.40;;;25.60;43.90;;;;;;4986271;28;45504;-60
2022/06/11 08:35:20;;;;;;;1.75;1.42;;;25.60;43.80;;;;;;4988922;28;45823;-61
2022/06/11 08:37:45;;;;;;;2.50;1.27;;;25.70;43.80;;;;;;4989036;28;44994;-63
2022/06/11 08:40:17;;;;;;;1.85;1.23;;;25.70;43.80;;;;;;4989456;28;45933;-59
2022/06/11 08:42:42;;;;;;;3.45;1.65;;;25.70;43.70;;;;;;4956823;28;45711;-57
2022/06/11 08:45:20;;;;;;;3.15;1.25;;;25.70;43.70;;;;;;4971276;28;45337;-59
2022/06/11 08:47:49;;;;;;;2.35;1.30;;;25.70;43.60;;;;;;4987698;28;45206;-58
2022/06/11 08:50:16;;;;;;;2.17;1.25;;;25.70;43.40;;;;;;4955733;28;46094;-55
2022/06/11 08:52:42;;;;;;;2.17;1.33;;;25.70;43.30;;;;;;4988443;28;45339;-62
2022/06/11 08:55:07;;;;;;;2.30;1.10;;;25.80;43.30;;;;;;4970485;28;45239;-58
2022/06/11 08:57:40;;;;;;;4.05;1.23;;;25.80;43.00;;;;;;4970733;28;45112;-63
2022/06/11 09:00:23;;;;;;;1.38;1.10;;;25.80;42.90;;;;;;4967179;28;45766;-64
2022/06/11 09:03:08;;;;;;;5.13;1.40;;;25.80;42.70;;;;;;4967532;28;45215;-61
2022/06/11 09:06:06;;;;;;;1.95;1.02;;;25.80;42.50;;;;;;4988010;28;45613;-58
2022/06/11 09:08:42;;;;;;;1.17;1.05;;;25.90;42.40;;;;;;4985037;28;45374;-63
2022/06/11 09:11:16;;;;;;;1.48;1.08;;;25.90;42.50;;;;;;4968792;28;46048;-57
2022/06/11 09:14:11;;;;;;;4.57;1.52;;;25.90;42.70;;;;;;4984850;28;46101;-61
2022/06/11 09:16:48;;;;;;;3.50;1.13;;;25.90;42.30;;;;;;4972311;28;45240;-64
2022/06/11 09:19:20;;;;;;;1.48;1.00;;;26.00;42.40;;;;;;4988075;28;45100;-65
2022/06/11 09:21:53;;;;;;;2.78;1.20;;;26.00;42.50;;;;;;4971809;28;46264;-59
2022/06/11 09:24:28;;;;;;;6.20;1.23;;;26.00;42.40;;;;;;4962757;28;46260;-64
2022/06/11 09:27:12;;;;;;;2.28;1.20;;;26.00;42.40;;;;;;4987121;28;45573;-64
2022/06/11 09:30:02;;;;;;;1.48;1.10;;;26.00;42.20;;;;;;4987415;28;45350;-60
2022/06/11 09:32:34;;;;;;;3.28;1.20;;;26.00;42.40;;;;;;4988875;28;46905;-60
2022/06/11 09:35:21;;;;;;;2.13;1.13;;;26.00;42.50;;;;;;4975278;28;45608;-64
2022/06/11 09:37:49;;;;;;;1.13;1.00;;;26.00;42.30;;;;;;4988556;28;45435;-64
2022/06/11 09:40:31;;;;;;;2.05;1.00;;;26.00;42.40;;;;;;4989487;28;45380;-57
2022/06/11 09:43:12;;;;;;;1.25;0.98;;;26.10;42.40;;;;;;4975098;28;47118;-64
2022/06/11 09:45:56;;;;;;;2.60;1.25;;;26.10;42.40;;;;;;4965175;28;45583;-63
2022/06/11 09:49:03;;;;;;;1.48;1.02;;;26.10;42.30;;;;;;4958228;28;45660;-58
2022/06/11 09:51:44;;;;;;;2.47;1.02;;;26.10;42.20;;;;;;4989853;28;45297;-62
2022/06/11 09:54:32;;;;;;;1.20;0.90;;;26.10;42.30;;;;;;4973628;28;46290;-60
2022/06/11 09:57:07;;;;;;;3.28;1.30;;;26.10;42.20;;;;;;4988288;28;45529;-59
2022/06/11 09:59:44;;;;;;;2.03;1.20;;;26.10;42.30;;;;;;4972584;28;45749;-61
2022/06/11 10:02:30;;;;;;;1.05;0.90;;;26.10;42.30;;;;;;4986953;28;46138;-62
2022/06/11 10:04:55;;;;;;;1.83;1.13;;;26.10;42.40;;;;;;4988953;28;46343;-62
2022/06/11 10:07:25;;;;;;;3.25;0.80;;;26.10;42.80;;;;;;4970165;28;46107;-59
2022/06/11 10:10:06;;;;;;;2.05;1.02;;;26.10;42.20;;;;;;4965709;28;45475;-63
2022/06/11 10:12:52;;;;;;;1.48;0.88;;;26.20;42.10;;;;;;4966982;28;45620;-66
2022/06/11 10:15:25;;;;;;;2.22;1.02;;;26.20;42.10;;;;;;4988181;28;46202;-58
2022/06/11 10:18:02;;;;;;;2.13;1.20;;;26.20;42.20;;;;;;4966270;28;45297;-64
2022/06/11 10:20:35;;;;;;;1.38;0.88;;;26.20;42.10;;;;;;4967557;28;45824;-57
2022/06/11 10:23:14;;;;;;;1.50;1.10;;;26.20;42.20;;;;;;4989995;28;45581;-63
2022/06/11 10:25:55;;;;;;;0.98;0.93;;;26.20;42.20;;;;;;4956996;28;45547;-62
2022/06/11 10:28:45;;;;;;;1.77;1.00;;;26.20;42.10;;;;;;4974312;28;45468;-58
2022/06/11 10:31:13;;;;;;;2.38;1.00;;;26.20;42.10;;;;;;4956294;28;45820;-61
2022/06/11 10:33:46;;;;;;;3.28;1.25;;;26.20;42.10;;;;;;4973875;28;46081;-58
2022/06/11 10:36:36;;;;;;;1.30;0.80;;;26.20;41.90;;;;;;4964318;28;46194;-64
2022/06/11 10:39:24;;;;;;;1.20;0.80;;;26.30;41.90;;;;;;4971805;28;45252;-58
2022/06/11 10:42:24;;;;;;;1.00;0.90;;;26.30;41.90;;;;;;4969547;28;45932;-59
2022/06/11 10:44:51;;;;;;;1.92;1.15;;;26.30;41.90;;;;;;4971925;28;45539;-55
2022/06/11 10:47:27;;;;;;;2.13;1.13;;;26.30;42.10;;;;;;4988304;28;45927;-58
2022/06/11 10:50:29;;;;;;;1.08;0.88;;;26.30;42.00;;;;;;4963179;28;45173;-60
2022/06/11 10:53:06;;;;;;;2.10;1.10;;;26.30;41.90;;;;;;4987792;28;45239;-59
2022/06/11 10:55:32;;;;;;;1.25;1.00;;;26.30;41.80;;;;;;4988378;28;45321;-67
2022/06/11 10:58:00;;;;;;;1.98;0.95;;;26.30;41.80;;;;;;4987362;28;46152;-63
2022/06/11 11:00:27;;;;;;;1.52;0.88;;;26.30;41.90;;;;;;4950895;28;44943;-67
2022/06/11 11:03:04;;;;;;;1.45;1.00;;;26.30;41.90;;;;;;4952185;28;45375;-61
2022/06/11 11:06:02;;;;;;;1.38;0.93;;;26.30;41.90;;;;;;4970109;28;45400;-61
2022/06/11 11:08:28;;;;;;;1.48;0.93;;;26.30;41.50;;;;;;4988103;28;46965;-62
2022/06/11 11:10:54;;;;;;;1.27;1.00;;;26.30;41.80;;;;;;4960579;28;45067;-62
2022/06/11 11:13:23;;;;;;;2.85;1.00;;;26.30;41.80;;;;;;4981185;28;45762;-60
2022/06/11 11:15:58;;;;;;;1.48;1.30;;;26.40;41.80;;;;;;4986643;28;45329;-64
2022/06/11 11:18:26;;;;;;;2.28;1.10;;;26.40;41.70;;;;;;4969835;28;45001;-62
2022/06/11 11:20:53;;;;;;;2.30;1.13;;;26.40;41.80;;;;;;4969654;28;45264;-63
2022/06/11 11:23:23;;;;;;;3.08;1.08;;;26.40;41.80;;;;;;4968272;28;45185;-57
2022/06/11 11:26:15;;;;;;;1.60;0.90;;;26.40;41.70;;;;;;4969050;28;44789;-59
2022/06/11 11:28:51;;;;;;;1.83;0.73;;;26.40;41.70;;;;;;4963432;28;47010;-61
2022/06/11 11:31:38;;;;;;;1.95;1.00;;;26.40;41.70;;;;;;4985085;28;45290;-61
2022/06/11 11:34:20;;;;;;;1.10;0.95;;;26.50;41.80;;;;;;4987052;28;45706;-63
2022/06/11 11:36:46;;;;;;;1.00;0.90;;;26.50;41.90;;;;;;4983956;28;45642;-62
2022/06/11 11:39:16;;;;;;;1.33;0.80;;;26.50;41.80;;;;;;4985686;28;45324;-63
2022/06/11 11:42:09;;;;;;;1.50;1.17;;;26.50;41.60;;;;;;4984710;28;45634;-60
2022/06/11 11:44:39;;;;;;;3.58;1.13;;;26.50;41.60;;;;;;4963441;28;45434;-62
2022/06/11 11:47:10;;;;;;;1.40;1.10;;;26.50;41.60;;;;;;4988061;28;45503;-64
2022/06/11 11:49:36;;;;;;;1.73;0.95;;;26.50;41.70;;;;;;4969047;28;45658;-61
2022/06/11 11:52:15;;;;;;;2.47;0.95;;;26.50;41.60;;;;;;4951368;28;45601;-60
2022/06/11 11:55:02;;;;;;;1.25;1.05;;;26.50;41.50;;;;;;4969889;28;44959;-60
2022/06/11 11:57:30;;;;;;;0.93;0.82;;;26.50;41.50;;;;;;4970740;28;45140;-63
2022/06/11 12:00:07;;;;;;;1.45;0.80;;;26.50;41.60;;;;;;4968686;28;45906;-61
2022/06/11 12:02:46;;;;;;;1.00;0.90;;;26.60;41.60;;;;;;4952701;28;45268;-63
2022/06/11 12:05:30;;;;;;;0.95;0.82;;;26.60;41.40;;;;;;4969884;28;45484;-60
2022/06/11 12:07:56;;;;;;;1.88;1.00;;;26.60;41.30;;;;;;4954212;28;45612;-61
2022/06/11 12:10:32;;;;;;;1.33;0.77;;;26.60;41.50;;;;;;4968109;28;45974;-59
2022/06/11 12:12:58;;;;;;;3.83;1.00;;;26.60;41.30;;;;;;4985691;28;45693;-60
2022/06/11 12:15:31;;;;;;;1.30;0.88;;;26.60;41.50;;;;;;4967897;28;45180;-62
2022/06/11 12:18:02;;;;;;;1.00;0.80;;;26.60;41.40;;;;;;4967233;28;45555;-69
2022/06/11 12:20:52;;;;;;;1.75;1.10;;;26.60;41.40;;;;;;4968661;28;45526;-60
2022/06/11 12:23:30;;;;;;;1.33;0.80;;;26.60;41.20;;;;;;4970874;28;46391;-60
2022/06/11 12:26:26;;;;;;;0.95;0.75;;;26.60;41.20;;;;;;4970521;28;46188;-60
2022/06/11 12:29:06;;;;;;;1.00;0.80;;;26.60;41.20;;;;;;4969418;28;45288;-62
2022/06/11 12:31:33;;;;;;;1.40;0.90;;;26.60;41.10;;;;;;4969546;28;45926;-59
2022/06/11 12:34:00;;;;;;;0.90;0.70;;;26.60;41.30;;;;;;4988620;28;45711;-63
2022/06/11 12:36:34;;;;;;;1.40;0.90;;;26.60;41.30;;;;;;4986874;28;44967;-63
2022/06/11 12:39:17;;;;;;;0.77;0.70;;;26.70;41.30;;;;;;4986466;28;45185;-59
2022/06/11 12:41:57;;;;;;;1.65;0.93;;;26.70;41.20;;;;;;4968719;28;45768;-62
2022/06/11 12:44:36;;;;;;;0.80;0.80;;;26.70;41.30;;;;;;4968426;28;45530;-61
2022/06/11 12:47:23;;;;;;;1.70;0.82;;;26.70;41.20;;;;;;4950888;28;45429;-62
2022/06/11 12:50:09;;;;;;;1.15;0.80;;;26.70;41.10;;;;;;4973291;28;44761;-60
2022/06/11 12:52:53;;;;;;;1.63;0.77;;;26.70;40.90;;;;;;4985316;28;46102;-61
2022/06/11 12:55:31;;;;;;;0.88;0.85;;;26.70;41.10;;;;;;4984499;28;45683;-60
2022/06/11 12:58:00;;;;;;;0.90;0.70;;;26.80;41.20;;;;;;4985475;28;45524;-63
2022/06/11 13:00:40;;;;;;;1.67;1.02;;;26.70;41.00;;;;;;4965893;28;45444;-60
2022/06/11 13:03:12;;;;;;;1.85;1.13;;;26.80;41.00;;;;;;4983844;28;46920;-60
2022/06/11 13:06:01;;;;;;;1.75;0.75;;;26.80;41.00;;;;;;4985741;28;45678;-62
2022/06/11 13:08:39;;;;;;;1.92;0.90;;;26.80;41.00;;;;;;4947480;28;45728;-70
2022/06/11 13:11:40;;;;;;;1.08;0.80;;;26.80;41.10;;;;;;4985513;28;45605;-63
2022/06/11 13:14:25;;;;;;;1.65;0.90;;;26.80;41.50;;;;;;4971848;28;47333;-59
2022/06/11 13:17:19;;;;;;;1.15;0.93;;;26.80;40.90;;;;;;4934453;28;45719;-60
2022/06/11 13:20:12;;;;;;;1.05;0.95;;;26.80;40.90;;;;;;4984617;28;45291;-59
2022/06/11 13:22:54;;;;;;;1.95;0.93;;;26.80;41.10;;;;;;4986624;28;45364;-57
2022/06/11 13:25:33;;;;;;;0.90;0.90;;;26.80;41.00;;;;;;4984274;28;46043;-63
2022/06/11 13:28:22;;;;;;;2.60;1.00;;;26.80;41.00;;;;;;4968329;28;45676;-64
2022/06/11 13:31:09;;;;;;;0.80;0.80;;;26.80;41.00;;;;;;4966584;28;44709;-61
2022/06/11 13:33:57;;;;;;;1.23;0.82;;;26.80;41.20;;;;;;4970589;28;45910;-58
2022/06/11 13:36:33;;;;;;;0.75;0.70;;;26.80;40.90;;;;;;4983683;28;46172;-56
2022/06/11 13:39:22;;;;;;;0.80;0.70;;;26.80;41.10;;;;;;4974251;28;45554;-61
2022/06/11 13:41:53;;;;;;;1.10;0.85;;;26.80;41.00;;;;;;4963061;28;45667;-61
2022/06/11 13:44:29;;;;;;;1.10;1.00;;;26.80;41.10;;;;;;4963703;28;45403;-64
2022/06/11 13:47:23;;;;;;;1.23;0.80;;;26.80;41.10;;;;;;4937251;28;46345;-71
2022/06/11 13:50:00;;;;;;;0.75;0.70;;;26.80;40.90;;;;;;4957218;28;45932;-64
2022/06/11 13:55:26;;;;;;;0.70;0.70;;;26.80;41.10;;;;;;4965423;28;45956;-65
2022/06/11 13:58:32;;;;;;;0.93;0.75;;;26.90;41.10;;;;;;4945787;28;45760;-62
2022/06/11 14:01:13;;;;;;;0.80;0.70;;;26.90;40.80;;;;;;4961025;28;45474;-64
2022/06/11 14:04:04;;;;;;;0.70;0.70;;;26.90;41.00;;;;;;4968296;28;45394;-69
2022/06/11 14:06:29;;;;;;;1.77;0.80;;;26.90;40.80;;;;;;4984006;28;45385;-63
2022/06/11 14:12:05;;;;;;;1.05;0.90;;;26.90;40.60;;;;;;4981057;28;45420;-64
2022/06/11 14:14:38;;;;;;;0.70;0.68;;;26.90;40.80;;;;;;4961528;28;46330;-66
2022/06/11 14:17:41;;;;;;;0.85;0.75;;;26.90;40.70;;;;;;4980187;28;46208;-61
2022/06/11 14:20:25;;;;;;;1.38;0.80;;;26.90;40.60;;;;;;4981181;28;45926;-61
2022/06/11 14:22:53;;;;;;;0.80;0.75;;;27.00;40.60;;;;;;4981939;28;45367;-62
2022/06/11 14:25:38;;;;;;;0.70;0.70;;;27.00;40.80;;;;;;4966141;28;45704;-62
2022/06/11 14:28:16;;;;;;;1.13;0.98;;;27.00;40.60;;;;;;4980811;28;45980;-63
2022/06/11 14:31:01;;;;;;;1.50;0.82;;;27.00;40.60;;;;;;4979068;28;45238;-67
2022/06/11 14:33:31;;;;;;;1.08;0.60;;;27.00;40.50;;;;;;4984006;28;45064;-62
2022/06/11 14:36:17;;;;;;;0.80;0.70;;;27.00;40.70;;;;;;4985272;28;45253;-64
2022/06/11 14:38:44;;;;;;;1.38;0.75;;;27.00;40.70;;;;;;4988573;28;45452;-60
2022/06/11 14:41:10;;;;;;;0.93;0.80;;;27.00;40.80;;;;;;4952219;28;47091;-58
2022/06/11 14:43:50;;;;;;;1.00;0.70;;;27.00;40.80;;;;;;4988067;28;45783;-61
2022/06/11 14:46:36;;;;;;;1.20;0.80;;;27.00;40.60;;;;;;4988207;28;45319;-60
2022/06/11 14:49:15;;;;;;;0.93;0.68;;;27.00;40.60;;;;;;4987741;28;45090;-60
2022/06/11 14:51:42;;;;;;;1.42;0.77;;;27.00;40.80;;;;;;4968905;28;46270;-62
2022/06/11 14:54:37;;;;;;;0.90;0.80;;;27.00;40.70;;;;;;4968714;28;45344;-62
2022/06/11 14:57:33;;;;;;;0.77;0.77;;;27.10;40.70;;;;;;4937104;28;46318;-64
2022/06/11 15:00:17;;;;;;;1.02;0.65;;;27.10;40.60;;;;;;4978262;28;45684;-59
2022/06/11 15:03:00;;;;;;;0.65;0.65;;;27.10;40.70;;;;;;4984138;28;46374;-62
2022/06/11 15:05:35;;;;;;;0.90;0.82;;;27.10;40.70;;;;;;4968448;28;45492;-64
2022/06/11 15:08:24;;;;;;;0.60;0.60;;;27.10;40.70;;;;;;4987026;28;45103;-64
2022/06/11 15:11:18;;;;;;;0.70;0.70;;;27.10;40.60;;;;;;4984516;28;46240;-64
2022/06/11 15:13:56;;;;;;;1.42;0.98;;;27.10;40.50;;;;;;4967597;28;45631;-59
2022/06/11 15:16:29;;;;;;;1.10;0.80;;;27.10;40.50;;;;;;4984231;28;45778;-66
2022/06/11 15:19:16;;;;;;;2.17;0.90;;;27.10;40.60;;;;;;4957118;28;44742;-68
2022/06/11 15:22:02;;;;;;;0.98;0.90;;;27.20;40.50;;;;;;4977650;28;45703;-61
2022/06/11 15:24:41;;;;;;;1.10;0.60;;;27.10;40.40;;;;;;4938207;28;46567;-64
2022/06/11 15:27:06;;;;;;;0.73;0.73;;;27.20;40.60;;;;;;4977635;28;45549;-65
2022/06/11 15:29:33;;;;;;;0.90;0.68;;;27.20;40.70;;;;;;4943711;28;45696;-64
2022/06/11 15:32:05;;;;;;;1.23;0.82;;;27.20;40.70;;;;;;4978007;28;45648;-64
2022/06/11 15:34:48;;;;;;;1.95;0.98;;;27.20;40.70;;;;;;4938471;28;45633;-63
2022/06/11 15:37:17;;;;;;;1.15;0.73;;;27.30;40.60;;;;;;4976765;28;45204;-62
2022/06/11 15:39:56;;;;;;;1.48;0.80;;;27.30;40.70;;;;;;4975779;28;45848;-64
2022/06/11 15:42:35;;;;;;;0.80;0.68;;;27.30;40.70;;;;;;4957824;28;45534;-66
2022/06/11 15:45:02;;;;;;;1.33;0.80;;;27.30;40.70;;;;;;4957930;28;46012;-62
2022/06/11 15:47:31;;;;;;;0.80;0.80;;;27.30;40.70;;;;;;4959497;28;45646;-66
2022/06/11 15:50:03;;;;;;;0.82;0.80;;;27.30;40.70;;;;;;4959620;28;45337;-64
2022/06/11 15:52:39;;;;;;;1.08;0.73;;;27.30;40.70;;;;;;4959317;28;45755;-63
2022/06/11 15:55:24;;;;;;;0.90;0.80;;;27.30;40.60;;;;;;4974540;28;45393;-66
2022/06/11 15:57:54;;;;;;;0.88;0.80;;;27.30;40.60;;;;;;4963268;28;45738;-60
2022/06/11 16:00:23;;;;;;;0.88;0.65;;;27.30;40.70;;;;;;4962414;28;45820;-62
2022/06/11 16:02:54;;;;;;;1.00;0.82;;;27.30;40.70;;;;;;4978002;28;45057;-60
2022/06/11 16:05:24;;;;;;;1.65;0.90;;;27.30;40.80;;;;;;4943989;28;46105;-61
2022/06/11 16:07:50;;;;;;;1.27;0.93;;;27.30;40.70;;;;;;4960271;28;45855;-63
2022/06/11 16:10:19;;;;;;;1.52;0.60;;;27.40;40.80;;;;;;4963316;28;45446;-61
2022/06/11 16:12:45;;;;;;;1.38;0.90;;;27.40;40.80;;;;;;4965257;28;44956;-57
2022/06/11 16:15:31;;;;;;;0.82;0.65;;;27.30;40.80;;;;;;4978720;28;47137;-63
2022/06/11 16:17:57;;;;;;;0.60;0.60;;;27.40;40.80;;;;;;4940676;28;45607;-62
2022/06/11 16:20:31;;;;;;;1.58;0.85;;;27.40;40.80;;;;;;4959179;28;45278;-66
2022/06/11 16:23:01;;;;;;;0.88;0.70;;;27.40;40.80;;;;;;4975525;28;45456;-63
2022/06/11 16:25:37;;;;;;;1.73;0.80;;;27.40;40.80;;;;;;4957458;28;46873;-67